sensor_id;sensor_type;location;lat;lon;timestamp;pressure;altitude;pressure_sealevel;temperature;humidity
39051;BME280;24805;55.852;37.644;2022-10-16T00:04:32;100574.66;;;7.77;46.79
39051;BME280;24805;55.852;37.644;2022-10-16T00:09:34;100588.13;;;7.74;47.30
39051;BME280;24805;55.852;37.644;2022-10-16T00:14:36;100586.72;;;7.70;46.36
39051;BME280;24805;55.852;37.644;2022-10-16T00:19:38;100592.28;;;7.67;46.94
39051;BME280;24805;55.852;37.644;2022-10-16T00:24:59;100598.66;;;7.65;46.54
39051;BME280;24805;55.852;37.644;2022-10-16T00:30:01;100603.22;;;7.63;46.58
39051;BME280;24805;55.852;37.644;2022-10-16T00:35:04;100594.75;;;7.59;46.73
39051;BME280;24805;55.852;37.644;2022-10-16T00:40:07;100609.06;;;7.56;46.28
39051;BME280;24805;55.852;37.644;2022-10-16T00:45:09;100607.50;;;7.54;47.30
39051;BME280;24805;55.852;37.644;2022-10-16T00:55:19;100601.06;;;7.47;46.37
39051;BME280;24805;55.852;37.644;2022-10-16T01:00:22;100600.63;;;7.42;47.82
39051;BME280;24805;55.852;37.644;2022-10-16T01:05:33;100602.56;;;7.40;47.34
39051;BME280;24805;55.852;37.644;2022-10-16T01:15:53;100616.41;;;7.32;47.44
39051;BME280;24805;55.852;37.644;2022-10-16T01:21:00;100617.06;;;7.24;46.36
39051;BME280;24805;55.852;37.644;2022-10-16T01:31:10;100617.72;;;7.17;47.31
39051;BME280;24805;55.852;37.644;2022-10-16T01:36:15;100614.63;;;7.12;47.53
39051;BME280;24805;55.852;37.644;2022-10-16T01:41:30;100623.63;;;7.09;47.38
39051;BME280;24805;55.852;37.644;2022-10-16T01:46:34;100622.22;;;7.05;47.19
39051;BME280;24805;55.852;37.644;2022-10-16T01:51:37;100625.22;;;7.01;47.19
39051;BME280;24805;55.852;37.644;2022-10-16T01:56:39;100632.59;;;6.97;48.39
39051;BME280;24805;55.852;37.644;2022-10-16T02:01:42;100630.19;;;6.94;48.32
39051;BME280;24805;55.852;37.644;2022-10-16T02:06:46;100632.25;;;6.90;47.90
39051;BME280;24805;55.852;37.644;2022-10-16T02:11:49;100625.66;;;6.85;48.18
39051;BME280;24805;55.852;37.644;2022-10-16T02:16:53;100636.34;;;6.83;48.23
39051;BME280;24805;55.852;37.644;2022-10-16T02:22:00;100632.03;;;6.82;47.80
39051;BME280;24805;55.852;37.644;2022-10-16T02:27:11;100633.81;;;6.82;47.47
39051;BME280;24805;55.852;37.644;2022-10-16T02:32:15;100639.94;;;6.82;48.48
39051;BME280;24805;55.852;37.644;2022-10-16T02:37:19;100631.47;;;6.79;47.84
39051;BME280;24805;55.852;37.644;2022-10-16T02:42:27;100644.78;;;6.77;48.09
39051;BME280;24805;55.852;37.644;2022-10-16T02:47:29;100637.00;;;6.76;48.10
39051;BME280;24805;55.852;37.644;2022-10-16T02:52:31;100642.50;;;6.73;47.76
39051;BME280;24805;55.852;37.644;2022-10-16T02:57:33;100648.03;;;6.70;49.73
39051;BME280;24805;55.852;37.644;2022-10-16T03:02:35;100644.44;;;6.71;48.65
39051;BME280;24805;55.852;37.644;2022-10-16T03:07:37;100647.19;;;6.69;48.98
39051;BME280;24805;55.852;37.644;2022-10-16T03:12:39;100654.28;;;6.69;48.19
39051;BME280;24805;55.852;37.644;2022-10-16T03:17:41;100659.66;;;6.67;48.10
39051;BME280;24805;55.852;37.644;2022-10-16T03:22:43;100670.56;;;6.63;48.84
39051;BME280;24805;55.852;37.644;2022-10-16T03:27:45;100656.56;;;6.62;48.85
39051;BME280;24805;55.852;37.644;2022-10-16T03:32:47;100658.63;;;6.59;49.68
39051;BME280;24805;55.852;37.644;2022-10-16T03:37:49;100663.31;;;6.55;48.91
39051;BME280;24805;55.852;37.644;2022-10-16T03:42:51;100671.47;;;6.52;49.70
39051;BME280;24805;55.852;37.644;2022-10-16T03:47:53;100678.53;;;6.51;48.58
39051;BME280;24805;55.852;37.644;2022-10-16T03:52:55;100674.34;;;6.49;48.57
39051;BME280;24805;55.852;37.644;2022-10-16T03:57:57;100678.06;;;6.46;48.74
39051;BME280;24805;55.852;37.644;2022-10-16T04:02:59;100678.19;;;6.45;49.43
39051;BME280;24805;55.852;37.644;2022-10-16T04:08:01;100681.06;;;6.42;48.88
39051;BME280;24805;55.852;37.644;2022-10-16T04:13:03;100674.09;;;6.41;49.25
39051;BME280;24805;55.852;37.644;2022-10-16T04:18:05;100667.38;;;6.48;49.31
39051;BME280;24805;55.852;37.644;2022-10-16T04:23:08;100670.97;;;6.58;49.01
39051;BME280;24805;55.852;37.644;2022-10-16T04:28:10;100676.03;;;6.82;49.35
39051;BME280;24805;55.852;37.644;2022-10-16T04:33:12;100680.50;;;7.34;50.10
39051;BME280;24805;55.852;37.644;2022-10-16T04:38:14;100682.34;;;7.94;49.28
39051;BME280;24805;55.852;37.644;2022-10-16T04:43:16;100687.16;;;8.60;49.15
39051;BME280;24805;55.852;37.644;2022-10-16T04:48:18;100682.88;;;9.26;48.98
39051;BME280;24805;55.852;37.644;2022-10-16T04:53:20;100692.50;;;9.93;48.58
39051;BME280;24805;55.852;37.644;2022-10-16T04:58:22;100686.28;;;10.49;47.42
39051;BME280;24805;55.852;37.644;2022-10-16T05:03:25;100696.19;;;11.10;47.52
39051;BME280;24805;55.852;37.644;2022-10-16T05:08:26;100696.44;;;11.78;47.11
39051;BME280;24805;55.852;37.644;2022-10-16T05:13:28;100703.13;;;12.24;45.29
39051;BME280;24805;55.852;37.644;2022-10-16T05:18:30;100709.75;;;12.62;46.14
39051;BME280;24805;55.852;37.644;2022-10-16T05:23:32;100699.91;;;13.21;44.23
39051;BME280;24805;55.852;37.644;2022-10-16T05:28:34;100705.19;;;13.86;44.74
39051;BME280;24805;55.852;37.644;2022-10-16T05:33:37;100705.75;;;14.68;44.87
39051;BME280;24805;55.852;37.644;2022-10-16T05:38:39;100708.38;;;15.44;43.77
39051;BME280;24805;55.852;37.644;2022-10-16T05:43:41;100704.56;;;16.14;42.86
39051;BME280;24805;55.852;37.644;2022-10-16T05:48:43;100712.81;;;16.99;42.39
39051;BME280;24805;55.852;37.644;2022-10-16T05:53:45;100708.63;;;17.11;41.43
39051;BME280;24805;55.852;37.644;2022-10-16T05:58:47;100711.84;;;15.53;41.10
39051;BME280;24805;55.852;37.644;2022-10-16T06:03:52;100718.06;;;13.74;40.00
39051;BME280;24805;55.852;37.644;2022-10-16T06:08:55;100710.72;;;13.20;42.17
39051;BME280;24805;55.852;37.644;2022-10-16T06:13:59;100719.94;;;14.68;42.15
39051;BME280;24805;55.852;37.644;2022-10-16T06:19:03;100717.22;;;16.85;39.43
39051;BME280;24805;55.852;37.644;2022-10-16T06:24:08;100717.06;;;19.02;37.22
39051;BME280;24805;55.852;37.644;2022-10-16T06:29:10;100729.41;;;20.68;37.78
39051;BME280;24805;55.852;37.644;2022-10-16T06:34:12;100722.44;;;22.05;34.19
39051;BME280;24805;55.852;37.644;2022-10-16T06:39:14;100719.38;;;23.04;35.77
39051;BME280;24805;55.852;37.644;2022-10-16T06:44:16;100723.66;;;23.88;33.05
39051;BME280;24805;55.852;37.644;2022-10-16T06:49:18;100721.28;;;24.38;29.24
39051;BME280;24805;55.852;37.644;2022-10-16T06:54:23;100726.25;;;24.30;32.69
39051;BME280;24805;55.852;37.644;2022-10-16T06:59:25;100733.78;;;24.51;32.20
39051;BME280;24805;55.852;37.644;2022-10-16T07:04:27;100734.91;;;24.67;27.88
39051;BME280;24805;55.852;37.644;2022-10-16T07:09:29;100736.78;;;25.06;26.64
39051;BME280;24805;55.852;37.644;2022-10-16T07:14:36;100747.09;;;25.38;24.58
39051;BME280;24805;55.852;37.644;2022-10-16T07:19:38;100740.81;;;25.49;27.73
39051;BME280;24805;55.852;37.644;2022-10-16T07:24:40;100737.19;;;25.94;27.73
39051;BME280;24805;55.852;37.644;2022-10-16T07:29:43;100734.13;;;26.67;28.40
39051;BME280;24805;55.852;37.644;2022-10-16T07:34:46;100733.34;;;27.48;25.36
39051;BME280;24805;55.852;37.644;2022-10-16T07:39:48;100737.25;;;27.94;24.01
39051;BME280;24805;55.852;37.644;2022-10-16T07:44:50;100731.78;;;27.89;25.70
39051;BME280;24805;55.852;37.644;2022-10-16T07:49:52;100737.94;;;28.16;22.93
39051;BME280;24805;55.852;37.644;2022-10-16T07:54:54;100722.69;;;28.77;24.80
39051;BME280;24805;55.852;37.644;2022-10-16T08:00:01;100737.28;;;29.95;23.60
39051;BME280;24805;55.852;37.644;2022-10-16T08:05:12;100748.22;;;29.85;20.04
39051;BME280;24805;55.852;37.644;2022-10-16T08:10:16;100743.06;;;29.73;22.29
39051;BME280;24805;55.852;37.644;2022-10-16T08:15:19;100740.84;;;29.90;21.37
39051;BME280;24805;55.852;37.644;2022-10-16T08:20:21;100740.53;;;30.22;23.19
39051;BME280;24805;55.852;37.644;2022-10-16T08:25:23;100739.31;;;30.64;22.11
39051;BME280;24805;55.852;37.644;2022-10-16T08:30:25;100740.47;;;31.02;20.15
39051;BME280;24805;55.852;37.644;2022-10-16T08:35:28;100743.69;;;30.65;20.18
39051;BME280;24805;55.852;37.644;2022-10-16T08:40:31;100741.41;;;29.41;19.49
39051;BME280;24805;55.852;37.644;2022-10-16T08:45:45;100734.00;;;29.17;19.47
39051;BME280;24805;55.852;37.644;2022-10-16T08:50:50;100726.34;;;29.95;20.81
39051;BME280;24805;55.852;37.644;2022-10-16T08:55:53;100747.13;;;30.16;18.09
39051;BME280;24805;55.852;37.644;2022-10-16T09:00:56;100731.28;;;29.42;20.29
39051;BME280;24805;55.852;37.644;2022-10-16T09:11:09;100731.91;;;28.56;19.94
39051;BME280;24805;55.852;37.644;2022-10-16T09:26:20;100711.78;;;28.20;17.74
39051;BME280;24805;55.852;37.644;2022-10-16T09:31:24;100719.25;;;28.40;19.60
39051;BME280;24805;55.852;37.644;2022-10-16T09:36:27;100709.06;;;28.98;18.30
39051;BME280;24805;55.852;37.644;2022-10-16T09:41:30;100719.81;;;29.45;18.19
39051;BME280;24805;55.852;37.644;2022-10-16T09:46:34;100710.53;;;30.66;19.09
39051;BME280;24805;55.852;37.644;2022-10-16T09:51:36;100717.00;;;31.30;18.98
39051;BME280;24805;55.852;37.644;2022-10-16T09:56:39;100702.34;;;31.05;18.16
39051;BME280;24805;55.852;37.644;2022-10-16T10:01:46;100701.19;;;30.77;15.66
39051;BME280;24805;55.852;37.644;2022-10-16T10:06:50;100706.94;;;29.20;15.86
39051;BME280;24805;55.852;37.644;2022-10-16T10:22:25;100678.94;;;27.58;17.16
39051;BME280;24805;55.852;37.644;2022-10-16T10:37:59;100683.16;;;28.23;17.98
39051;BME280;24805;55.852;37.644;2022-10-16T10:43:15;100684.78;;;27.76;17.15
39051;BME280;24805;55.852;37.644;2022-10-16T10:48:31;100677.38;;;27.40;17.70
39051;BME280;24805;55.852;37.644;2022-10-16T10:53:56;100682.19;;;26.96;18.12
39051;BME280;24805;55.852;37.644;2022-10-16T11:24:37;100673.78;;;26.75;18.92
39051;BME280;24805;55.852;37.644;2022-10-16T11:35:21;100666.78;;;26.85;18.34
39051;BME280;24805;55.852;37.644;2022-10-16T11:40:26;100658.25;;;26.49;18.48
39051;BME280;24805;55.852;37.644;2022-10-16T11:50:43;100668.50;;;25.82;19.14
39051;BME280;24805;55.852;37.644;2022-10-16T11:55:47;100666.13;;;25.52;20.14
39051;BME280;24805;55.852;37.644;2022-10-16T12:06:05;100657.66;;;25.15;20.11
39051;BME280;24805;55.852;37.644;2022-10-16T12:16:25;100656.59;;;24.59;20.84
39051;BME280;24805;55.852;37.644;2022-10-16T12:21:29;100657.56;;;24.53;20.87
39051;BME280;24805;55.852;37.644;2022-10-16T12:26:32;100650.31;;;24.18;21.01
39051;BME280;24805;55.852;37.644;2022-10-16T12:31:43;100664.06;;;23.88;21.15
39051;BME280;24805;55.852;37.644;2022-10-16T12:37:07;100638.03;;;23.52;21.34
39051;BME280;24805;55.852;37.644;2022-10-16T12:42:20;100627.63;;;23.26;21.67
39051;BME280;24805;55.852;37.644;2022-10-16T12:52:38;100624.22;;;23.30;22.11
39051;BME280;24805;55.852;37.644;2022-10-16T13:18:25;100621.72;;;21.54;23.39
39051;BME280;24805;55.852;37.644;2022-10-16T13:23:36;100636.06;;;21.55;23.25
39051;BME280;24805;55.852;37.644;2022-10-16T13:28:40;100640.41;;;20.68;23.69
39051;BME280;24805;55.852;37.644;2022-10-16T13:33:43;100628.50;;;19.86;24.72
39051;BME280;24805;55.852;37.644;2022-10-16T13:38:47;100627.13;;;19.38;25.35
39051;BME280;24805;55.852;37.644;2022-10-16T13:43:50;100631.03;;;19.09;25.16
39051;BME280;24805;55.852;37.644;2022-10-16T13:49:00;100613.84;;;18.77;25.61
39051;BME280;24805;55.852;37.644;2022-10-16T13:54:03;100606.03;;;18.28;25.65
39051;BME280;24805;55.852;37.644;2022-10-16T13:59:05;100617.38;;;17.54;27.05
39051;BME280;24805;55.852;37.644;2022-10-16T14:04:09;100614.88;;;16.75;26.56
39051;BME280;24805;55.852;37.644;2022-10-16T14:09:21;100622.78;;;16.11;27.68
39051;BME280;24805;55.852;37.644;2022-10-16T14:14:24;100613.28;;;15.65;29.55
39051;BME280;24805;55.852;37.644;2022-10-16T14:19:27;100613.94;;;15.29;28.14
39051;BME280;24805;55.852;37.644;2022-10-16T14:29:32;100616.78;;;14.67;28.05
39051;BME280;24805;55.852;37.644;2022-10-16T14:34:37;100620.13;;;14.38;29.09
39051;BME280;24805;55.852;37.644;2022-10-16T14:39:41;100625.22;;;14.17;29.19
39051;BME280;24805;55.852;37.644;2022-10-16T14:44:44;100630.31;;;13.96;30.83
39051;BME280;24805;55.852;37.644;2022-10-16T14:49:47;100630.72;;;13.76;30.00
39051;BME280;24805;55.852;37.644;2022-10-16T14:54:49;100627.59;;;13.57;32.11
39051;BME280;24805;55.852;37.644;2022-10-16T14:59:51;100621.94;;;13.52;30.58
39051;BME280;24805;55.852;37.644;2022-10-16T15:04:53;100639.25;;;13.39;31.82
39051;BME280;24805;55.852;37.644;2022-10-16T15:09:55;100636.78;;;13.30;31.08
39051;BME280;24805;55.852;37.644;2022-10-16T15:14:58;100634.94;;;13.14;33.51
39051;BME280;24805;55.852;37.644;2022-10-16T15:20:00;100635.44;;;13.09;34.26
39051;BME280;24805;55.852;37.644;2022-10-16T15:25:08;100638.09;;;13.01;33.90
39051;BME280;24805;55.852;37.644;2022-10-16T15:30:17;100652.09;;;12.95;33.12
39051;BME280;24805;55.852;37.644;2022-10-16T15:35:19;100635.59;;;12.84;33.62
39051;BME280;24805;55.852;37.644;2022-10-16T15:40:22;100632.78;;;12.77;35.19
39051;BME280;24805;55.852;37.644;2022-10-16T15:45:25;100627.94;;;12.72;34.15
39051;BME280;24805;55.852;37.644;2022-10-16T15:50:27;100647.53;;;12.63;36.88
39051;BME280;24805;55.852;37.644;2022-10-16T15:55:29;100645.88;;;12.54;36.35
39051;BME280;24805;55.852;37.644;2022-10-16T16:00:31;100618.75;;;12.51;35.39
39051;BME280;24805;55.852;37.644;2022-10-16T16:05:37;100624.53;;;12.46;35.27
39051;BME280;24805;55.852;37.644;2022-10-16T16:10:43;100622.34;;;12.41;36.27
39051;BME280;24805;55.852;37.644;2022-10-16T16:15:45;100629.03;;;12.37;36.20
39051;BME280;24805;55.852;37.644;2022-10-16T16:20:47;100622.19;;;12.35;35.44
39051;BME280;24805;55.852;37.644;2022-10-16T16:31:09;100629.47;;;12.25;35.35
39051;BME280;24805;55.852;37.644;2022-10-16T16:36:11;100628.47;;;12.18;36.55
39051;BME280;24805;55.852;37.644;2022-10-16T16:41:17;100629.63;;;12.15;35.93
39051;BME280;24805;55.852;37.644;2022-10-16T16:46:20;100625.75;;;12.10;36.71
39051;BME280;24805;55.852;37.644;2022-10-16T16:51:22;100635.56;;;12.09;36.14
39051;BME280;24805;55.852;37.644;2022-10-16T16:56:24;100629.06;;;12.03;36.11
39051;BME280;24805;55.852;37.644;2022-10-16T17:01:27;100632.53;;;11.96;37.21
39051;BME280;24805;55.852;37.644;2022-10-16T17:06:29;100632.16;;;11.91;36.68
39051;BME280;24805;55.852;37.644;2022-10-16T17:11:31;100625.50;;;11.87;37.51
39051;BME280;24805;55.852;37.644;2022-10-16T17:16:34;100641.09;;;11.82;38.91
39051;BME280;24805;55.852;37.644;2022-10-16T17:21:37;100629.56;;;11.73;37.76
39051;BME280;24805;55.852;37.644;2022-10-16T17:26:39;100631.16;;;11.66;38.54
39051;BME280;24805;55.852;37.644;2022-10-16T17:31:45;100614.84;;;11.61;38.21
39051;BME280;24805;55.852;37.644;2022-10-16T17:36:47;100624.50;;;11.62;37.59
39051;BME280;24805;55.852;37.644;2022-10-16T17:41:49;100636.13;;;11.61;37.72
39051;BME280;24805;55.852;37.644;2022-10-16T17:46:51;100623.47;;;11.55;38.35
39051;BME280;24805;55.852;37.644;2022-10-16T17:51:53;100646.34;;;11.48;38.83
39051;BME280;24805;55.852;37.644;2022-10-16T17:56:55;100632.69;;;11.43;38.96
39051;BME280;24805;55.852;37.644;2022-10-16T18:01:57;100613.41;;;11.40;38.02
39051;BME280;24805;55.852;37.644;2022-10-16T18:06:59;100631.00;;;11.42;38.08
39051;BME280;24805;55.852;37.644;2022-10-16T18:12:02;100631.50;;;11.37;38.73
39051;BME280;24805;55.852;37.644;2022-10-16T18:17:04;100629.59;;;11.29;38.50
39051;BME280;24805;55.852;37.644;2022-10-16T18:22:06;100630.38;;;11.22;38.48
39051;BME280;24805;55.852;37.644;2022-10-16T18:27:09;100637.00;;;11.18;38.53
39051;BME280;24805;55.852;37.644;2022-10-16T18:32:12;100653.47;;;11.03;39.94
39051;BME280;24805;55.852;37.644;2022-10-16T18:37:14;100639.34;;;11.03;39.79
39051;BME280;24805;55.852;37.644;2022-10-16T18:42:16;100634.03;;;11.03;39.35
39051;BME280;24805;55.852;37.644;2022-10-16T18:47:18;100646.28;;;10.96;39.80
39051;BME280;24805;55.852;37.644;2022-10-16T18:52:21;100628.97;;;10.92;39.46
39051;BME280;24805;55.852;37.644;2022-10-16T18:57:26;100623.97;;;10.89;39.31
39051;BME280;24805;55.852;37.644;2022-10-16T19:02:29;100619.25;;;10.83;39.86
39051;BME280;24805;55.852;37.644;2022-10-16T19:07:31;100621.78;;;10.84;40.03
39051;BME280;24805;55.852;37.644;2022-10-16T19:12:34;100611.00;;;10.86;39.68
39051;BME280;24805;55.852;37.644;2022-10-16T19:17:36;100622.41;;;10.78;40.75
39051;BME280;24805;55.852;37.644;2022-10-16T19:22:38;100608.78;;;10.81;39.48
39051;BME280;24805;55.852;37.644;2022-10-16T19:27:55;100600.34;;;10.78;39.93
39051;BME280;24805;55.852;37.644;2022-10-16T19:32:57;100605.63;;;10.78;39.79
39051;BME280;24805;55.852;37.644;2022-10-16T19:37:59;100600.78;;;10.73;40.11
39051;BME280;24805;55.852;37.644;2022-10-16T19:43:01;100599.72;;;10.66;40.27
39051;BME280;24805;55.852;37.644;2022-10-16T19:48:03;100612.13;;;10.65;40.38
39051;BME280;24805;55.852;37.644;2022-10-16T19:53:05;100603.78;;;10.60;40.53
39051;BME280;24805;55.852;37.644;2022-10-16T19:58:09;100614.34;;;10.52;41.57
39051;BME280;24805;55.852;37.644;2022-10-16T20:03:11;100611.16;;;10.49;40.74
39051;BME280;24805;55.852;37.644;2022-10-16T20:08:13;100629.63;;;10.41;41.20
39051;BME280;24805;55.852;37.644;2022-10-16T20:13:15;100615.38;;;10.42;41.24
39051;BME280;24805;55.852;37.644;2022-10-16T20:18:17;100600.09;;;10.35;40.45
39051;BME280;24805;55.852;37.644;2022-10-16T20:23:19;100603.47;;;10.28;41.07
39051;BME280;24805;55.852;37.644;2022-10-16T20:28:21;100597.78;;;10.23;40.24
39051;BME280;24805;55.852;37.644;2022-10-16T20:33:23;100594.19;;;10.14;41.60
39051;BME280;24805;55.852;37.644;2022-10-16T20:38:25;100597.84;;;10.03;40.96
39051;BME280;24805;55.852;37.644;2022-10-16T20:43:27;100587.31;;;9.94;41.16
39051;BME280;24805;55.852;37.644;2022-10-16T20:48:29;100604.63;;;9.88;41.80
39051;BME280;24805;55.852;37.644;2022-10-16T20:53:31;100589.59;;;9.79;41.46
39051;BME280;24805;55.852;37.644;2022-10-16T20:58:38;100589.22;;;9.74;42.33
39051;BME280;24805;55.852;37.644;2022-10-16T21:03:40;100599.28;;;9.71;41.82
39051;BME280;24805;55.852;37.644;2022-10-16T21:08:42;100585.34;;;9.68;41.59
39051;BME280;24805;55.852;37.644;2022-10-16T21:13:45;100604.47;;;9.62;42.54
39051;BME280;24805;55.852;37.644;2022-10-16T21:18:47;100593.06;;;9.52;42.94
39051;BME280;24805;55.852;37.644;2022-10-16T21:23:49;100594.88;;;9.52;41.93
39051;BME280;24805;55.852;37.644;2022-10-16T21:28:59;100597.13;;;9.47;42.76
39051;BME280;24805;55.852;37.644;2022-10-16T21:34:01;100580.69;;;9.43;42.68
39051;BME280;24805;55.852;37.644;2022-10-16T21:39:13;100576.81;;;9.38;43.01
39051;BME280;24805;55.852;37.644;2022-10-16T21:44:16;100588.25;;;9.38;43.27
39051;BME280;24805;55.852;37.644;2022-10-16T21:49:18;100586.03;;;9.33;42.53
39051;BME280;24805;55.852;37.644;2022-10-16T21:54:21;100589.50;;;9.34;42.66
39051;BME280;24805;55.852;37.644;2022-10-16T21:59:23;100583.09;;;9.37;42.41
39051;BME280;24805;55.852;37.644;2022-10-16T22:04:25;100583.09;;;9.37;42.87
39051;BME280;24805;55.852;37.644;2022-10-16T22:09:27;100594.25;;;9.30;43.25
39051;BME280;24805;55.852;37.644;2022-10-16T22:14:29;100624.34;;;9.29;42.78
39051;BME280;24805;55.852;37.644;2022-10-16T22:19:30;100591.59;;;9.30;42.44
39051;BME280;24805;55.852;37.644;2022-10-16T22:24:32;100578.66;;;9.27;43.28
39051;BME280;24805;55.852;37.644;2022-10-16T22:29:36;100587.84;;;9.23;43.36
39051;BME280;24805;55.852;37.644;2022-10-16T22:34:38;100592.59;;;9.20;43.40
39051;BME280;24805;55.852;37.644;2022-10-16T22:39:40;100589.41;;;9.16;43.53
39051;BME280;24805;55.852;37.644;2022-10-16T22:44:43;100586.22;;;9.13;43.23
39051;BME280;24805;55.852;37.644;2022-10-16T22:49:45;100596.25;;;9.09;42.64
39051;BME280;24805;55.852;37.644;2022-10-16T22:54:47;100581.34;;;9.08;43.26
39051;BME280;24805;55.852;37.644;2022-10-16T22:59:49;100578.97;;;9.05;43.48
39051;BME280;24805;55.852;37.644;2022-10-16T23:04:51;100589.69;;;9.04;43.49
39051;BME280;24805;55.852;37.644;2022-10-16T23:09:53;100571.44;;;9.01;43.21
39051;BME280;24805;55.852;37.644;2022-10-16T23:14:56;100567.28;;;8.98;43.94
39051;BME280;24805;55.852;37.644;2022-10-16T23:19:58;100554.91;;;8.98;43.59
39051;BME280;24805;55.852;37.644;2022-10-16T23:25:00;100554.06;;;8.98;43.09
39051;BME280;24805;55.852;37.644;2022-10-16T23:30:02;100547.78;;;8.99;43.37
39051;BME280;24805;55.852;37.644;2022-10-16T23:35:04;100549.88;;;8.95;43.59
39051;BME280;24805;55.852;37.644;2022-10-16T23:40:07;100544.13;;;9.00;44.07
39051;BME280;24805;55.852;37.644;2022-10-16T23:45:09;100538.00;;;8.99;43.69
39051;BME280;24805;55.852;37.644;2022-10-16T23:50:11;100552.25;;;8.98;43.78
39051;BME280;24805;55.852;37.644;2022-10-16T23:55:13;100541.94;;;8.95;44.51
